sensor_id;sensor_type;location;lat;lon;timestamp;temperature;humidity
16200;DHT22;8207;52.494;4.654;2022-08-21T00:00:08;17.10;99.90
16200;DHT22;8207;52.494;4.654;2022-08-21T00:02:35;17.20;99.90
16200;DHT22;8207;52.494;4.654;2022-08-21T00:05:03;17.10;99.90
16200;DHT22;8207;52.494;4.654;2022-08-21T00:07:30;17.10;99.90
16200;DHT22;8207;52.494;4.654;2022-08-21T00:09:57;17.10;99.90
16200;DHT22;8207;52.494;4.654;2022-08-21T00:12:25;17.10;99.90
16200;DHT22;8207;52.494;4.654;2022-08-21T00:14:52;17.10;99.90
16200;DHT22;8207;52.494;4.654;2022-08-21T00:17:19;17.10;99.90
16200;DHT22;8207;52.494;4.654;2022-08-21T00:19:47;17.00;99.90
16200;DHT22;8207;52.494;4.654;2022-08-21T00:22:14;17.00;99.90
16200;DHT22;8207;52.494;4.654;2022-08-21T00:24:40;17.00;99.90
16200;DHT22;8207;52.494;4.654;2022-08-21T00:27:08;17.00;99.90
16200;DHT22;8207;52.494;4.654;2022-08-21T00:29:36;17.00;99.90
16200;DHT22;8207;52.494;4.654;2022-08-21T00:32:03;17.00;99.90
16200;DHT22;8207;52.494;4.654;2022-08-21T00:34:30;17.00;99.90
16200;DHT22;8207;52.494;4.654;2022-08-21T00:36:57;17.00;99.90
16200;DHT22;8207;52.494;4.654;2022-08-21T00:39:24;17.00;99.90
16200;DHT22;8207;52.494;4.654;2022-08-21T00:41:50;17.00;99.90
16200;DHT22;8207;52.494;4.654;2022-08-21T00:44:17;16.90;99.90
16200;DHT22;8207;52.494;4.654;2022-08-21T00:46:46;16.90;99.90
16200;DHT22;8207;52.494;4.654;2022-08-21T00:49:13;16.90;99.90
16200;DHT22;8207;52.494;4.654;2022-08-21T00:51:44;16.90;99.90
16200;DHT22;8207;52.494;4.654;2022-08-21T00:54:12;16.90;99.90
16200;DHT22;8207;52.494;4.654;2022-08-21T00:56:39;16.90;99.90
16200;DHT22;8207;52.494;4.654;2022-08-21T00:59:06;16.90;99.90
16200;DHT22;8207;52.494;4.654;2022-08-21T01:01:34;16.90;99.90
16200;DHT22;8207;52.494;4.654;2022-08-21T01:04:03;16.90;99.90
16200;DHT22;8207;52.494;4.654;2022-08-21T01:06:30;16.90;99.90
16200;DHT22;8207;52.494;4.654;2022-08-21T01:08:57;16.90;99.90
16200;DHT22;8207;52.494;4.654;2022-08-21T01:11:25;16.80;99.90
16200;DHT22;8207;52.494;4.654;2022-08-21T01:13:52;16.80;99.90
16200;DHT22;8207;52.494;4.654;2022-08-21T01:16:21;16.80;99.90
16200;DHT22;8207;52.494;4.654;2022-08-21T01:18:49;16.80;99.90
16200;DHT22;8207;52.494;4.654;2022-08-21T01:21:20;16.90;99.90
16200;DHT22;8207;52.494;4.654;2022-08-21T01:23:49;16.90;99.90
16200;DHT22;8207;52.494;4.654;2022-08-21T01:26:26;16.90;99.90
16200;DHT22;8207;52.494;4.654;2022-08-21T01:28:57;16.90;99.90
16200;DHT22;8207;52.494;4.654;2022-08-21T01:31:27;16.90;99.90
16200;DHT22;8207;52.494;4.654;2022-08-21T01:33:55;16.90;99.90
16200;DHT22;8207;52.494;4.654;2022-08-21T01:36:24;16.90;99.90
16200;DHT22;8207;52.494;4.654;2022-08-21T01:38:51;16.90;99.90
16200;DHT22;8207;52.494;4.654;2022-08-21T01:41:18;16.90;99.90
16200;DHT22;8207;52.494;4.654;2022-08-21T01:43:45;17.00;99.90
16200;DHT22;8207;52.494;4.654;2022-08-21T01:46:13;17.20;99.90
16200;DHT22;8207;52.494;4.654;2022-08-21T01:48:40;17.30;99.90
16200;DHT22;8207;52.494;4.654;2022-08-21T01:51:08;17.30;99.90
16200;DHT22;8207;52.494;4.654;2022-08-21T01:53:36;17.30;99.90
16200;DHT22;8207;52.494;4.654;2022-08-21T01:56:07;17.30;99.90
16200;DHT22;8207;52.494;4.654;2022-08-21T01:58:34;17.40;99.90
16200;DHT22;8207;52.494;4.654;2022-08-21T02:01:01;17.40;99.90
16200;DHT22;8207;52.494;4.654;2022-08-21T02:03:29;17.40;99.90
16200;DHT22;8207;52.494;4.654;2022-08-21T02:05:56;17.50;99.90
16200;DHT22;8207;52.494;4.654;2022-08-21T02:08:23;17.50;99.90
16200;DHT22;8207;52.494;4.654;2022-08-21T02:10:52;17.50;99.90
16200;DHT22;8207;52.494;4.654;2022-08-21T02:13:19;17.40;99.90
16200;DHT22;8207;52.494;4.654;2022-08-21T02:15:46;17.40;99.90
16200;DHT22;8207;52.494;4.654;2022-08-21T02:18:13;17.40;99.90
16200;DHT22;8207;52.494;4.654;2022-08-21T02:20:42;17.30;99.90
16200;DHT22;8207;52.494;4.654;2022-08-21T02:23:11;17.30;99.90
16200;DHT22;8207;52.494;4.654;2022-08-21T02:25:38;17.20;99.90
16200;DHT22;8207;52.494;4.654;2022-08-21T02:28:09;17.20;99.90
16200;DHT22;8207;52.494;4.654;2022-08-21T02:30:39;17.10;99.90
16200;DHT22;8207;52.494;4.654;2022-08-21T02:33:08;17.10;99.90
16200;DHT22;8207;52.494;4.654;2022-08-21T02:35:37;17.00;99.90
16200;DHT22;8207;52.494;4.654;2022-08-21T02:38:07;17.00;99.90
16200;DHT22;8207;52.494;4.654;2022-08-21T02:40:36;16.90;99.90
16200;DHT22;8207;52.494;4.654;2022-08-21T02:43:06;16.90;99.90
16200;DHT22;8207;52.494;4.654;2022-08-21T02:45:35;16.90;99.90
16200;DHT22;8207;52.494;4.654;2022-08-21T02:48:04;16.80;99.90
16200;DHT22;8207;52.494;4.654;2022-08-21T02:50:35;16.80;99.90
16200;DHT22;8207;52.494;4.654;2022-08-21T02:53:03;16.70;99.90
16200;DHT22;8207;52.494;4.654;2022-08-21T02:55:31;16.70;99.90
16200;DHT22;8207;52.494;4.654;2022-08-21T02:57:59;16.70;99.90
16200;DHT22;8207;52.494;4.654;2022-08-21T03:00:29;16.70;99.90
16200;DHT22;8207;52.494;4.654;2022-08-21T03:02:58;16.60;99.90
16200;DHT22;8207;52.494;4.654;2022-08-21T03:05:27;16.60;99.90
16200;DHT22;8207;52.494;4.654;2022-08-21T03:07:57;16.60;99.90
16200;DHT22;8207;52.494;4.654;2022-08-21T03:10:24;16.60;99.90
16200;DHT22;8207;52.494;4.654;2022-08-21T03:12:51;16.60;99.90
16200;DHT22;8207;52.494;4.654;2022-08-21T03:15:21;16.60;99.90
16200;DHT22;8207;52.494;4.654;2022-08-21T03:17:51;16.50;99.90
16200;DHT22;8207;52.494;4.654;2022-08-21T03:20:23;16.50;99.90
16200;DHT22;8207;52.494;4.654;2022-08-21T03:22:50;16.50;99.90
16200;DHT22;8207;52.494;4.654;2022-08-21T03:25:18;16.50;99.90
16200;DHT22;8207;52.494;4.654;2022-08-21T03:27:46;16.50;99.90
16200;DHT22;8207;52.494;4.654;2022-08-21T03:30:15;16.40;99.90
16200;DHT22;8207;52.494;4.654;2022-08-21T03:32:42;16.40;99.90
16200;DHT22;8207;52.494;4.654;2022-08-21T03:35:10;16.40;99.90
16200;DHT22;8207;52.494;4.654;2022-08-21T03:37:37;16.50;99.90
16200;DHT22;8207;52.494;4.654;2022-08-21T03:40:05;16.40;99.90
16200;DHT22;8207;52.494;4.654;2022-08-21T03:42:33;16.40;99.90
16200;DHT22;8207;52.494;4.654;2022-08-21T03:45:00;16.40;99.90
16200;DHT22;8207;52.494;4.654;2022-08-21T03:47:27;16.40;99.90
16200;DHT22;8207;52.494;4.654;2022-08-21T03:49:54;16.40;99.90
16200;DHT22;8207;52.494;4.654;2022-08-21T03:52:22;16.40;99.90
16200;DHT22;8207;52.494;4.654;2022-08-21T03:54:49;16.40;99.90
16200;DHT22;8207;52.494;4.654;2022-08-21T03:57:16;16.30;99.90
16200;DHT22;8207;52.494;4.654;2022-08-21T03:59:44;16.30;99.90
16200;DHT22;8207;52.494;4.654;2022-08-21T04:02:13;16.30;99.90
16200;DHT22;8207;52.494;4.654;2022-08-21T04:04:43;16.30;99.90
16200;DHT22;8207;52.494;4.654;2022-08-21T04:07:09;16.30;99.90
16200;DHT22;8207;52.494;4.654;2022-08-21T04:09:37;16.30;99.90
16200;DHT22;8207;52.494;4.654;2022-08-21T04:12:05;16.30;99.90
16200;DHT22;8207;52.494;4.654;2022-08-21T04:14:32;16.30;99.90
16200;DHT22;8207;52.494;4.654;2022-08-21T04:16:59;16.20;99.90
16200;DHT22;8207;52.494;4.654;2022-08-21T04:19:26;16.20;99.90
16200;DHT22;8207;52.494;4.654;2022-08-21T04:21:53;16.30;99.90
16200;DHT22;8207;52.494;4.654;2022-08-21T04:24:20;16.20;99.90
16200;DHT22;8207;52.494;4.654;2022-08-21T04:26:48;16.20;99.90
16200;DHT22;8207;52.494;4.654;2022-08-21T04:29:15;16.20;99.90
16200;DHT22;8207;52.494;4.654;2022-08-21T04:31:42;16.20;99.90
16200;DHT22;8207;52.494;4.654;2022-08-21T04:34:09;16.20;99.90
16200;DHT22;8207;52.494;4.654;2022-08-21T04:36:36;16.20;99.90
16200;DHT22;8207;52.494;4.654;2022-08-21T04:39:03;16.20;99.90
16200;DHT22;8207;52.494;4.654;2022-08-21T04:41:30;16.20;99.90
16200;DHT22;8207;52.494;4.654;2022-08-21T04:43:58;16.20;99.90
16200;DHT22;8207;52.494;4.654;2022-08-21T04:46:26;16.20;99.90
16200;DHT22;8207;52.494;4.654;2022-08-21T04:48:53;16.20;99.90
16200;DHT22;8207;52.494;4.654;2022-08-21T04:51:24;16.20;99.90
16200;DHT22;8207;52.494;4.654;2022-08-21T04:53:55;16.20;99.90
16200;DHT22;8207;52.494;4.654;2022-08-21T04:56:26;16.20;99.90
16200;DHT22;8207;52.494;4.654;2022-08-21T04:58:58;16.20;99.90
16200;DHT22;8207;52.494;4.654;2022-08-21T05:01:32;16.20;99.90
16200;DHT22;8207;52.494;4.654;2022-08-21T05:04:00;16.20;99.90
16200;DHT22;8207;52.494;4.654;2022-08-21T05:06:31;16.20;99.90
16200;DHT22;8207;52.494;4.654;2022-08-21T05:09:00;16.20;99.90
16200;DHT22;8207;52.494;4.654;2022-08-21T05:11:28;16.20;99.90
16200;DHT22;8207;52.494;4.654;2022-08-21T05:13:55;16.30;99.90
16200;DHT22;8207;52.494;4.654;2022-08-21T05:16:24;16.30;99.90
16200;DHT22;8207;52.494;4.654;2022-08-21T05:18:52;16.30;99.90
16200;DHT22;8207;52.494;4.654;2022-08-21T05:21:19;16.30;99.90
16200;DHT22;8207;52.494;4.654;2022-08-21T05:23:46;16.30;99.90
16200;DHT22;8207;52.494;4.654;2022-08-21T05:26:13;16.40;99.90
16200;DHT22;8207;52.494;4.654;2022-08-21T05:28:40;16.40;99.90
16200;DHT22;8207;52.494;4.654;2022-08-21T05:31:06;16.40;99.90
16200;DHT22;8207;52.494;4.654;2022-08-21T05:33:35;16.40;99.90
16200;DHT22;8207;52.494;4.654;2022-08-21T05:36:02;16.40;99.90
16200;DHT22;8207;52.494;4.654;2022-08-21T05:38:29;16.50;99.90
16200;DHT22;8207;52.494;4.654;2022-08-21T05:40:56;16.50;99.90
16200;DHT22;8207;52.494;4.654;2022-08-21T05:43:23;16.60;99.90
16200;DHT22;8207;52.494;4.654;2022-08-21T05:45:50;16.70;99.90
16200;DHT22;8207;52.494;4.654;2022-08-21T05:48:19;16.70;99.90
16200;DHT22;8207;52.494;4.654;2022-08-21T05:50:49;16.70;99.90
16200;DHT22;8207;52.494;4.654;2022-08-21T05:53:18;16.80;99.90
16200;DHT22;8207;52.494;4.654;2022-08-21T05:55:46;16.80;99.90
16200;DHT22;8207;52.494;4.654;2022-08-21T05:58:13;16.90;99.90
16200;DHT22;8207;52.494;4.654;2022-08-21T06:00:41;17.00;99.90
16200;DHT22;8207;52.494;4.654;2022-08-21T06:03:13;17.00;99.90
16200;DHT22;8207;52.494;4.654;2022-08-21T06:05:41;17.20;99.90
16200;DHT22;8207;52.494;4.654;2022-08-21T06:08:09;17.30;99.90
16200;DHT22;8207;52.494;4.654;2022-08-21T06:10:36;17.40;99.90
16200;DHT22;8207;52.494;4.654;2022-08-21T06:13:03;17.50;99.90
16200;DHT22;8207;52.494;4.654;2022-08-21T06:15:31;17.60;99.90
16200;DHT22;8207;52.494;4.654;2022-08-21T06:17:57;17.70;99.90
16200;DHT22;8207;52.494;4.654;2022-08-21T06:20:24;17.80;99.90
16200;DHT22;8207;52.494;4.654;2022-08-21T06:22:52;17.90;99.90
16200;DHT22;8207;52.494;4.654;2022-08-21T06:25:20;18.00;99.90
16200;DHT22;8207;52.494;4.654;2022-08-21T06:27:47;18.00;99.90
16200;DHT22;8207;52.494;4.654;2022-08-21T06:30:14;18.00;99.90
16200;DHT22;8207;52.494;4.654;2022-08-21T06:32:41;18.10;99.90
16200;DHT22;8207;52.494;4.654;2022-08-21T06:35:09;18.10;99.90
16200;DHT22;8207;52.494;4.654;2022-08-21T06:37:36;18.10;99.90
16200;DHT22;8207;52.494;4.654;2022-08-21T06:40:04;18.20;99.90
16200;DHT22;8207;52.494;4.654;2022-08-21T06:42:33;18.20;99.90
16200;DHT22;8207;52.494;4.654;2022-08-21T06:45:00;18.30;99.90
16200;DHT22;8207;52.494;4.654;2022-08-21T06:47:27;18.40;99.90
16200;DHT22;8207;52.494;4.654;2022-08-21T06:49:53;18.50;99.90
16200;DHT22;8207;52.494;4.654;2022-08-21T06:52:20;18.60;99.90
16200;DHT22;8207;52.494;4.654;2022-08-21T06:54:47;18.60;99.90
16200;DHT22;8207;52.494;4.654;2022-08-21T06:57:14;18.80;99.90
16200;DHT22;8207;52.494;4.654;2022-08-21T06:59:44;18.90;99.90
16200;DHT22;8207;52.494;4.654;2022-08-21T07:02:12;19.00;99.90
16200;DHT22;8207;52.494;4.654;2022-08-21T07:04:39;19.30;99.90
16200;DHT22;8207;52.494;4.654;2022-08-21T07:07:06;19.50;99.90
16200;DHT22;8207;52.494;4.654;2022-08-21T07:09:33;19.70;99.90
16200;DHT22;8207;52.494;4.654;2022-08-21T07:12:00;19.90;99.90
16200;DHT22;8207;52.494;4.654;2022-08-21T07:14:27;20.10;99.90
16200;DHT22;8207;52.494;4.654;2022-08-21T07:16:55;20.40;99.90
16200;DHT22;8207;52.494;4.654;2022-08-21T07:19:22;20.70;99.90
16200;DHT22;8207;52.494;4.654;2022-08-21T07:21:49;21.00;99.90
16200;DHT22;8207;52.494;4.654;2022-08-21T07:24:16;21.30;99.90
16200;DHT22;8207;52.494;4.654;2022-08-21T07:26:43;21.70;99.90
16200;DHT22;8207;52.494;4.654;2022-08-21T07:29:09;22.10;99.90
16200;DHT22;8207;52.494;4.654;2022-08-21T07:31:36;22.40;99.90
16200;DHT22;8207;52.494;4.654;2022-08-21T07:34:05;22.60;99.90
16200;DHT22;8207;52.494;4.654;2022-08-21T07:36:32;22.80;99.90
16200;DHT22;8207;52.494;4.654;2022-08-21T07:38:59;22.90;99.90
16200;DHT22;8207;52.494;4.654;2022-08-21T07:41:27;23.00;99.90
16200;DHT22;8207;52.494;4.654;2022-08-21T07:43:56;23.10;99.90
16200;DHT22;8207;52.494;4.654;2022-08-21T07:46:24;23.20;99.90
16200;DHT22;8207;52.494;4.654;2022-08-21T07:48:51;23.40;99.90
16200;DHT22;8207;52.494;4.654;2022-08-21T07:51:23;23.70;99.90
16200;DHT22;8207;52.494;4.654;2022-08-21T07:53:51;23.90;99.90
16200;DHT22;8207;52.494;4.654;2022-08-21T07:56:19;24.10;99.90
16200;DHT22;8207;52.494;4.654;2022-08-21T07:58:46;24.30;99.90
16200;DHT22;8207;52.494;4.654;2022-08-21T08:01:14;24.60;99.90
16200;DHT22;8207;52.494;4.654;2022-08-21T08:03:41;24.80;99.90
16200;DHT22;8207;52.494;4.654;2022-08-21T08:06:08;25.00;99.90
16200;DHT22;8207;52.494;4.654;2022-08-21T08:08:39;25.00;99.90
16200;DHT22;8207;52.494;4.654;2022-08-21T08:11:07;24.90;99.90
16200;DHT22;8207;52.494;4.654;2022-08-21T08:13:38;24.80;99.90
16200;DHT22;8207;52.494;4.654;2022-08-21T08:16:06;24.70;99.90
16200;DHT22;8207;52.494;4.654;2022-08-21T08:18:33;24.50;99.90
16200;DHT22;8207;52.494;4.654;2022-08-21T08:21:00;24.30;99.90
16200;DHT22;8207;52.494;4.654;2022-08-21T08:23:27;24.00;99.90
16200;DHT22;8207;52.494;4.654;2022-08-21T08:25:57;23.70;99.90
16200;DHT22;8207;52.494;4.654;2022-08-21T08:28:25;23.40;99.90
16200;DHT22;8207;52.494;4.654;2022-08-21T08:30:52;23.20;99.90
16200;DHT22;8207;52.494;4.654;2022-08-21T08:33:19;23.00;99.90
16200;DHT22;8207;52.494;4.654;2022-08-21T08:35:49;22.90;99.90
16200;DHT22;8207;52.494;4.654;2022-08-21T08:38:16;23.00;99.90
16200;DHT22;8207;52.494;4.654;2022-08-21T08:40:50;23.40;99.90
16200;DHT22;8207;52.494;4.654;2022-08-21T08:43:21;24.00;99.90
16200;DHT22;8207;52.494;4.654;2022-08-21T08:45:50;24.60;99.90
16200;DHT22;8207;52.494;4.654;2022-08-21T08:48:31;25.00;99.90
16200;DHT22;8207;52.494;4.654;2022-08-21T08:51:00;25.40;99.90
16200;DHT22;8207;52.494;4.654;2022-08-21T08:53:32;25.70;99.90
16200;DHT22;8207;52.494;4.654;2022-08-21T08:56:01;25.70;99.90
16200;DHT22;8207;52.494;4.654;2022-08-21T08:58:33;25.60;99.90
16200;DHT22;8207;52.494;4.654;2022-08-21T09:01:01;25.50;99.90
16200;DHT22;8207;52.494;4.654;2022-08-21T09:03:30;25.70;99.90
16200;DHT22;8207;52.494;4.654;2022-08-21T09:06:06;25.90;99.90
16200;DHT22;8207;52.494;4.654;2022-08-21T09:08:45;25.90;99.90
16200;DHT22;8207;52.494;4.654;2022-08-21T09:11:23;25.90;99.90
16200;DHT22;8207;52.494;4.654;2022-08-21T09:14:01;26.00;99.90
16200;DHT22;8207;52.494;4.654;2022-08-21T09:16:40;26.00;99.90
16200;DHT22;8207;52.494;4.654;2022-08-21T09:19:18;25.70;99.90
16200;DHT22;8207;52.494;4.654;2022-08-21T09:22:02;25.60;99.90
16200;DHT22;8207;52.494;4.654;2022-08-21T09:24:32;25.20;99.90
16200;DHT22;8207;52.494;4.654;2022-08-21T09:27:04;24.60;99.90
16200;DHT22;8207;52.494;4.654;2022-08-21T09:29:39;24.40;99.90
16200;DHT22;8207;52.494;4.654;2022-08-21T09:32:11;24.10;99.90
16200;DHT22;8207;52.494;4.654;2022-08-21T09:34:41;23.80;99.90
16200;DHT22;8207;52.494;4.654;2022-08-21T09:37:16;23.50;99.90
16200;DHT22;8207;52.494;4.654;2022-08-21T09:39:44;23.60;99.90
16200;DHT22;8207;52.494;4.654;2022-08-21T09:42:11;23.50;99.90
16200;DHT22;8207;52.494;4.654;2022-08-21T09:44:41;23.40;99.90
16200;DHT22;8207;52.494;4.654;2022-08-21T09:47:10;23.30;99.90
16200;DHT22;8207;52.494;4.654;2022-08-21T09:49:40;23.10;99.90
16200;DHT22;8207;52.494;4.654;2022-08-21T09:52:18;23.00;99.90
16200;DHT22;8207;52.494;4.654;2022-08-21T09:54:50;22.90;99.90
16200;DHT22;8207;52.494;4.654;2022-08-21T09:57:24;22.90;99.90
16200;DHT22;8207;52.494;4.654;2022-08-21T10:00:15;22.70;99.90
16200;DHT22;8207;52.494;4.654;2022-08-21T10:02:44;22.60;99.90
16200;DHT22;8207;52.494;4.654;2022-08-21T10:05:17;22.50;99.90
16200;DHT22;8207;52.494;4.654;2022-08-21T10:07:44;22.50;99.90
16200;DHT22;8207;52.494;4.654;2022-08-21T10:10:16;22.50;99.90
16200;DHT22;8207;52.494;4.654;2022-08-21T10:12:48;22.60;99.90
16200;DHT22;8207;52.494;4.654;2022-08-21T10:15:22;22.60;99.90
16200;DHT22;8207;52.494;4.654;2022-08-21T10:18:02;22.60;99.90
16200;DHT22;8207;52.494;4.654;2022-08-21T10:20:37;22.50;99.90
16200;DHT22;8207;52.494;4.654;2022-08-21T10:23:28;22.50;99.90
16200;DHT22;8207;52.494;4.654;2022-08-21T10:26:02;22.50;99.90
16200;DHT22;8207;52.494;4.654;2022-08-21T10:28:36;22.50;99.90
16200;DHT22;8207;52.494;4.654;2022-08-21T10:31:15;22.50;99.90
16200;DHT22;8207;52.494;4.654;2022-08-21T10:33:51;22.60;99.90
16200;DHT22;8207;52.494;4.654;2022-08-21T10:36:23;22.60;99.90
16200;DHT22;8207;52.494;4.654;2022-08-21T10:38:58;22.60;99.90
16200;DHT22;8207;52.494;4.654;2022-08-21T10:41:39;22.80;99.90
16200;DHT22;8207;52.494;4.654;2022-08-21T10:44:17;23.20;99.90
16200;DHT22;8207;52.494;4.654;2022-08-21T10:46:57;23.30;99.90
16200;DHT22;8207;52.494;4.654;2022-08-21T10:49:35;23.30;99.90
16200;DHT22;8207;52.494;4.654;2022-08-21T10:52:24;23.50;99.90
16200;DHT22;8207;52.494;4.654;2022-08-21T10:54:57;23.50;99.90
16200;DHT22;8207;52.494;4.654;2022-08-21T10:57:31;23.50;99.90
16200;DHT22;8207;52.494;4.654;2022-08-21T11:00:04;23.70;99.90
16200;DHT22;8207;52.494;4.654;2022-08-21T11:02:38;23.90;99.90
16200;DHT22;8207;52.494;4.654;2022-08-21T11:05:14;24.10;99.90
16200;DHT22;8207;52.494;4.654;2022-08-21T11:07:46;24.30;99.90
16200;DHT22;8207;52.494;4.654;2022-08-21T11:10:20;24.40;99.90
16200;DHT22;8207;52.494;4.654;2022-08-21T11:12:51;24.50;99.90
16200;DHT22;8207;52.494;4.654;2022-08-21T11:15:33;24.50;99.90
16200;DHT22;8207;52.494;4.654;2022-08-21T11:18:10;24.70;99.90
16200;DHT22;8207;52.494;4.654;2022-08-21T11:20:46;24.80;99.90
16200;DHT22;8207;52.494;4.654;2022-08-21T11:23:23;24.90;99.90
16200;DHT22;8207;52.494;4.654;2022-08-21T11:25:55;24.90;99.90
16200;DHT22;8207;52.494;4.654;2022-08-21T11:28:28;25.00;99.90
16200;DHT22;8207;52.494;4.654;2022-08-21T11:31:06;25.10;99.90
16200;DHT22;8207;52.494;4.654;2022-08-21T11:34:00;25.00;99.90
16200;DHT22;8207;52.494;4.654;2022-08-21T11:36:37;24.90;99.90
16200;DHT22;8207;52.494;4.654;2022-08-21T11:39:12;24.80;99.90
16200;DHT22;8207;52.494;4.654;2022-08-21T11:41:46;24.70;99.90
16200;DHT22;8207;52.494;4.654;2022-08-21T11:44:18;24.70;99.90
16200;DHT22;8207;52.494;4.654;2022-08-21T11:46:57;24.50;99.90
16200;DHT22;8207;52.494;4.654;2022-08-21T11:49:46;24.40;99.90
16200;DHT22;8207;52.494;4.654;2022-08-21T11:52:20;24.30;99.90
16200;DHT22;8207;52.494;4.654;2022-08-21T11:54:52;24.20;99.90
16200;DHT22;8207;52.494;4.654;2022-08-21T11:57:25;24.20;99.90
16200;DHT22;8207;52.494;4.654;2022-08-21T11:59:59;24.30;99.90
16200;DHT22;8207;52.494;4.654;2022-08-21T12:02:31;24.40;99.90
16200;DHT22;8207;52.494;4.654;2022-08-21T12:05:03;24.20;99.90
16200;DHT22;8207;52.494;4.654;2022-08-21T12:07:34;24.30;99.90
16200;DHT22;8207;52.494;4.654;2022-08-21T12:10:04;24.20;99.90
16200;DHT22;8207;52.494;4.654;2022-08-21T12:12:33;24.40;99.90
16200;DHT22;8207;52.494;4.654;2022-08-21T12:15:16;24.70;99.90
16200;DHT22;8207;52.494;4.654;2022-08-21T12:17:53;24.80;99.90
16200;DHT22;8207;52.494;4.654;2022-08-21T12:20:37;25.10;99.90
16200;DHT22;8207;52.494;4.654;2022-08-21T12:23:17;25.10;99.90
16200;DHT22;8207;52.494;4.654;2022-08-21T12:25:47;24.90;99.90
16200;DHT22;8207;52.494;4.654;2022-08-21T12:28:21;24.80;99.90
16200;DHT22;8207;52.494;4.654;2022-08-21T12:30:49;24.60;99.90
16200;DHT22;8207;52.494;4.654;2022-08-21T12:33:23;24.40;99.90
16200;DHT22;8207;52.494;4.654;2022-08-21T12:36:00;24.40;99.90
16200;DHT22;8207;52.494;4.654;2022-08-21T12:38:30;24.50;99.90
16200;DHT22;8207;52.494;4.654;2022-08-21T12:41:01;24.40;99.90
16200;DHT22;8207;52.494;4.654;2022-08-21T12:43:33;24.40;99.90
16200;DHT22;8207;52.494;4.654;2022-08-21T12:46:01;24.30;99.90
16200;DHT22;8207;52.494;4.654;2022-08-21T12:48:33;24.30;99.90
16200;DHT22;8207;52.494;4.654;2022-08-21T12:51:10;24.40;99.90
16200;DHT22;8207;52.494;4.654;2022-08-21T12:53:43;24.50;99.90
16200;DHT22;8207;52.494;4.654;2022-08-21T12:56:13;24.70;99.90
16200;DHT22;8207;52.494;4.654;2022-08-21T12:58:43;24.80;99.90
16200;DHT22;8207;52.494;4.654;2022-08-21T13:01:16;24.90;99.90
16200;DHT22;8207;52.494;4.654;2022-08-21T13:03:45;25.10;99.90
16200;DHT22;8207;52.494;4.654;2022-08-21T13:06:15;25.00;99.90
16200;DHT22;8207;52.494;4.654;2022-08-21T13:08:44;24.80;99.90
16200;DHT22;8207;52.494;4.654;2022-08-21T13:11:14;24.80;99.90
16200;DHT22;8207;52.494;4.654;2022-08-21T13:13:43;24.90;99.90
16200;DHT22;8207;52.494;4.654;2022-08-21T13:16:10;24.90;99.90
16200;DHT22;8207;52.494;4.654;2022-08-21T13:18:54;24.90;99.90
16200;DHT22;8207;52.494;4.654;2022-08-21T13:21:28;25.00;99.90
16200;DHT22;8207;52.494;4.654;2022-08-21T13:24:15;24.90;99.90
16200;DHT22;8207;52.494;4.654;2022-08-21T13:26:43;24.80;99.90
16200;DHT22;8207;52.494;4.654;2022-08-21T13:29:13;24.70;99.90
16200;DHT22;8207;52.494;4.654;2022-08-21T13:31:48;24.50;99.90
16200;DHT22;8207;52.494;4.654;2022-08-21T13:34:15;24.30;99.90
16200;DHT22;8207;52.494;4.654;2022-08-21T13:36:45;24.20;99.90
16200;DHT22;8207;52.494;4.654;2022-08-21T13:39:17;24.10;99.90
16200;DHT22;8207;52.494;4.654;2022-08-21T13:41:47;24.00;99.90
16200;DHT22;8207;52.494;4.654;2022-08-21T13:44:17;23.80;99.90
16200;DHT22;8207;52.494;4.654;2022-08-21T13:46:46;23.70;99.90
16200;DHT22;8207;52.494;4.654;2022-08-21T13:49:16;23.70;99.90
16200;DHT22;8207;52.494;4.654;2022-08-21T13:51:45;23.70;99.90
16200;DHT22;8207;52.494;4.654;2022-08-21T13:54:20;23.60;99.90
16200;DHT22;8207;52.494;4.654;2022-08-21T13:56:48;23.60;99.90
16200;DHT22;8207;52.494;4.654;2022-08-21T13:59:24;23.60;99.90
16200;DHT22;8207;52.494;4.654;2022-08-21T14:01:54;23.60;99.90
16200;DHT22;8207;52.494;4.654;2022-08-21T14:04:26;23.70;99.90
16200;DHT22;8207;52.494;4.654;2022-08-21T14:06:55;23.80;99.90
16200;DHT22;8207;52.494;4.654;2022-08-21T14:09:28;23.80;99.90
16200;DHT22;8207;52.494;4.654;2022-08-21T14:11:58;23.70;99.90
16200;DHT22;8207;52.494;4.654;2022-08-21T14:14:28;23.80;99.90
16200;DHT22;8207;52.494;4.654;2022-08-21T14:16:58;23.80;99.90
16200;DHT22;8207;52.494;4.654;2022-08-21T14:19:28;23.70;99.90
16200;DHT22;8207;52.494;4.654;2022-08-21T14:22:22;23.60;99.90
16200;DHT22;8207;52.494;4.654;2022-08-21T14:24:49;23.60;99.90
16200;DHT22;8207;52.494;4.654;2022-08-21T14:27:24;23.60;99.90
16200;DHT22;8207;52.494;4.654;2022-08-21T14:29:58;23.50;99.90
16200;DHT22;8207;52.494;4.654;2022-08-21T14:32:28;23.40;99.90
16200;DHT22;8207;52.494;4.654;2022-08-21T14:34:57;23.40;99.90
16200;DHT22;8207;52.494;4.654;2022-08-21T14:37:25;23.30;99.90
16200;DHT22;8207;52.494;4.654;2022-08-21T14:39:52;23.30;99.90
16200;DHT22;8207;52.494;4.654;2022-08-21T14:42:19;23.30;99.90
16200;DHT22;8207;52.494;4.654;2022-08-21T14:44:48;23.30;99.90
16200;DHT22;8207;52.494;4.654;2022-08-21T14:47:15;23.40;99.90
16200;DHT22;8207;52.494;4.654;2022-08-21T14:49:42;23.40;99.90
16200;DHT22;8207;52.494;4.654;2022-08-21T14:52:09;23.50;99.90
16200;DHT22;8207;52.494;4.654;2022-08-21T14:54:38;23.50;99.90
16200;DHT22;8207;52.494;4.654;2022-08-21T14:57:06;23.50;99.90
16200;DHT22;8207;52.494;4.654;2022-08-21T14:59:35;23.60;99.90
16200;DHT22;8207;52.494;4.654;2022-08-21T15:02:03;23.60;99.90
16200;DHT22;8207;52.494;4.654;2022-08-21T15:04:31;23.70;99.90
16200;DHT22;8207;52.494;4.654;2022-08-21T15:06:58;23.60;99.90
16200;DHT22;8207;52.494;4.654;2022-08-21T15:09:25;23.70;99.90
16200;DHT22;8207;52.494;4.654;2022-08-21T15:11:55;23.70;99.90
16200;DHT22;8207;52.494;4.654;2022-08-21T15:14:26;23.60;99.90
16200;DHT22;8207;52.494;4.654;2022-08-21T15:16:53;23.60;99.90
16200;DHT22;8207;52.494;4.654;2022-08-21T15:19:19;23.50;99.90
16200;DHT22;8207;52.494;4.654;2022-08-21T15:21:46;23.50;99.90
16200;DHT22;8207;52.494;4.654;2022-08-21T15:24:14;23.60;99.90
16200;DHT22;8207;52.494;4.654;2022-08-21T15:26:41;23.60;99.90
16200;DHT22;8207;52.494;4.654;2022-08-21T15:29:09;23.50;99.90
16200;DHT22;8207;52.494;4.654;2022-08-21T15:31:36;23.50;99.90
16200;DHT22;8207;52.494;4.654;2022-08-21T15:34:15;23.50;99.90
16200;DHT22;8207;52.494;4.654;2022-08-21T15:36:42;23.50;99.90
16200;DHT22;8207;52.494;4.654;2022-08-21T15:39:09;23.40;99.90
16200;DHT22;8207;52.494;4.654;2022-08-21T15:41:36;23.40;99.90
16200;DHT22;8207;52.494;4.654;2022-08-21T15:44:03;23.40;99.90
16200;DHT22;8207;52.494;4.654;2022-08-21T15:46:32;23.30;99.90
16200;DHT22;8207;52.494;4.654;2022-08-21T15:48:59;23.20;99.90
16200;DHT22;8207;52.494;4.654;2022-08-21T15:51:26;23.10;99.90
16200;DHT22;8207;52.494;4.654;2022-08-21T15:53:53;23.10;99.90
16200;DHT22;8207;52.494;4.654;2022-08-21T15:56:26;23.00;99.90
16200;DHT22;8207;52.494;4.654;2022-08-21T15:58:59;22.90;99.90
16200;DHT22;8207;52.494;4.654;2022-08-21T16:01:27;22.90;99.90